Terminal Aerodrome Forecast
Issued by NWS

Home | Current Version | Previous Version | Text Only | Print | Product List | Glossary On
Versions: 1 2 3 4 5 6 7 8 9 10 11 12 13 14 15 16 17 18 19 20 21 22 23 24 25 26
000
FTUS44 KOHX 262300
TAFCKV
TAF
KCKV 262333Z 2700/2724 19004KT P6SM SCT250
     FM270200 20003KT P6SM SCT015
      TEMPO 2709/2713 3SM BR BKN015
     FM271400 22005KT P6SM OVC015
     FM271800 22008KT P6SM SCT050 BKN250=

USA.gov is the U.S. government's official web portal to all federal, state and local government web resources and services.